首页
METAR-TAF:

METAR-TAF

机场 :

Boulder City, 内华达州, 美国

纬度: 35-56-50N, 经度: 114-51-37W, 海拔: 671米

当前天气观测

该预报发布于14分钟前的05:35 UTC
风速6节,风向多变
温度 12°C
湿度 82%
气压 1017 hPa
能見度: 16.1公里
少量云层高于6000英尺
少量云层高于7500英尺

METAR: KBVU 080535Z AUTO VRB06KT 10SM FEW060 FEW075 12/09 A3004 RMK AO2

时间: 21:49 (05:49 UTC)


TAF: 丢失

超过4000个机场的气象观测和天气预报(METAR&TAF报告)。

可查询的气象台以黄色和红色小点在地图上表示。

将鼠标移到小点上方,可查看气象台名称。

然后点击查看天气观测和预报。

如需切换地图:点击带黑十字的绿色按钮放大地图;点击带横线的绿色按钮缩小地图;或者点击绿色箭头查看邻近地区的地图。


METAR-TAF: